Marina Municipal Airport

KOAR · Californië, Verenigde Staten

METAR historie KOAR · Marina Municipal Airport

Hieronder zie je METAR's van de afgelopen dagen. Kies een jaar om door oudere METAR's te bladeren, vanaf het jaar 2007.

15 juni 2024

Tijd Code Weer Temp. Zicht Plafond Wind METAR/SPECI
20:15
V
11 °C 10 mi - 250° 250° 18 kt METAR KOAR 160315Z AUTO 25018KT 10SM CLR 11/06 A2995 RMK AO2
19:55
V
11 °C 10 mi - 240° 240° 15 - 21 kt METAR KOAR 160255Z AUTO 24015G21KT 10SM CLR 11/06 A2995 RMK AO2
19:35
V
12 °C 10 mi - 250° 250° 18 - 22 kt METAR KOAR 160235Z AUTO 25018G22KT 10SM CLR 12/06 A2995 RMK AO2
19:15
V
12 °C 10 mi - 250° 250° 17 - 21 kt METAR KOAR 160215Z AUTO 25017G21KT 10SM CLR 12/06 A2996 RMK AO2
18:55
V
12 °C 10 mi - 260° 260° 14 - 21 kt METAR KOAR 160155Z AUTO 26014G21KT 10SM CLR 12/06 A2996 RMK AO2
18:35
V
12 °C 10 mi - 260° 260° 18 - 24 kt METAR KOAR 160135Z AUTO 26018G24KT 10SM CLR 12/07 A2996 RMK AO2
18:15
V
13 °C 10 mi - 260° 260° 16 - 20 kt METAR KOAR 160115Z AUTO 26016G20KT 10SM CLR 13/07 A2996 RMK AO2
17:55
V
13 °C 10 mi - 240° 240° 15 - 21 kt METAR KOAR 160055Z AUTO 24015G21KT 10SM CLR 13/07 A2996 RMK AO2
17:35
V
13 °C 10 mi - 250° 250° 16 - 22 kt METAR KOAR 160035Z AUTO 25016G22KT 10SM CLR 13/07 A2996 RMK AO2
17:15
V
14 °C 10 mi - 260° 260° 19 - 24 kt METAR KOAR 160015Z AUTO 26019G24KT 10SM CLR 14/07 A2996 RMK AO2
16:55
V
14 °C 10 mi - 260° 260° 18 - 26 kt METAR KOAR 152355Z AUTO 26018G26KT 10SM CLR 14/07 A2996 RMK AO2
16:35
V
15 °C 10 mi - 270° 270° 19 - 24 kt METAR KOAR 152335Z AUTO 27019G24KT 10SM CLR 15/08 A2997 RMK AO2
16:15
V
15 °C 10 mi - 270° 270° 20 - 26 kt METAR KOAR 152315Z AUTO 27020G26KT 10SM CLR 15/08 A2997 RMK AO2
15:55
V
16 °C 10 mi - 270° 270° 19 - 25 kt METAR KOAR 152255Z AUTO 27019G25KT 10SM CLR 16/08 A2997 RMK AO2
15:35
V
15 °C 10 mi - 280° 280° 19 - 25 kt METAR KOAR 152235Z AUTO 28019G25KT 10SM CLR 15/08 A2997 RMK AO2
15:15
V
16 °C 10 mi - 280° 280° 19 - 23 kt METAR KOAR 152215Z AUTO 28019G23KT 10SM CLR 16/08 A2997 RMK AO2
14:55
V
16 °C 10 mi - 280° 280° 18 kt METAR KOAR 152155Z AUTO 28018KT 10SM CLR 16/08 A2998 RMK AO2
14:35
V
16 °C 10 mi - 270° 270° 16 - 20 kt METAR KOAR 152135Z AUTO 27016G20KT 10SM CLR 16/08 A2998 RMK AO2
14:15
V
16 °C 10 mi - 270° 270° 17 kt METAR KOAR 152115Z AUTO 27017KT 10SM CLR 16/08 A2999 RMK AO2
13:55
V
17 °C 10 mi - 260° 260° 15 kt METAR KOAR 152055Z AUTO 26015KT 10SM CLR 17/08 A2999 RMK AO2
13:35
V
17 °C 10 mi - 270° 270° 15 kt METAR KOAR 152035Z AUTO 27015KT 10SM CLR 17/07 A2999 RMK AO2
13:15
V
16 °C 10 mi - 280° 280° 13 kt METAR KOAR 152015Z AUTO 28013KT 10SM CLR 16/07 A3000 RMK AO2
12:55
V
17 °C 10 mi - 260° 260° 14 kt METAR KOAR 151955Z AUTO 26014KT 10SM CLR 17/07 A3001 RMK AO2
12:35
V
17 °C 10 mi - 270° 270° 13 - 19 kt METAR KOAR 151935Z AUTO 27013G19KT 10SM CLR 17/08 A3002 RMK AO2
12:15
V
16 °C 10 mi - 270° 270° 13 - 16 kt METAR KOAR 151915Z AUTO 27013G16KT 10SM CLR 16/07 A3002 RMK AO2
11:55
V
16 °C 10 mi - 280° 280° 12 - 17 kt METAR KOAR 151855Z AUTO 28012G17KT 10SM CLR 16/08 A3002 RMK AO2
11:35
V
16 °C 10 mi - 270° 270° 11 - 15 kt METAR KOAR 151835Z AUTO 27011G15KT 10SM CLR 16/08 A3002 RMK AO2
11:15
V
15 °C 10 mi - 270° 270° 13 kt METAR KOAR 151815Z AUTO 27013KT 10SM CLR 15/08 A3002 RMK AO2
10:55
V
15 °C 10 mi - 270° 270° 12 kt METAR KOAR 151755Z AUTO 27012KT 10SM CLR 15/08 A3003 RMK AO2
10:35
V
15 °C 10 mi - 280° 280° 12 kt METAR KOAR 151735Z AUTO 28012KT 10SM CLR 15/08 A3004 RMK AO2
10:15
V
14 °C 10 mi - 250° 250° 13 kt METAR KOAR 151715Z AUTO 25013KT 10SM CLR 14/08 A3003 RMK AO2
09:55
V
13 °C 10 mi - 260° 260° 12 kt METAR KOAR 151655Z AUTO 26012KT 10SM SCT011 13/08 A3004 RMK AO2
09:35
M
13 °C 10 mi 1.100 ft 270° 270° 12 kt METAR KOAR 151635Z AUTO 27012KT 10SM BKN011 13/09 A3005 RMK AO2
09:15
V
13 °C 10 mi - 280° 280° 13 kt METAR KOAR 151615Z AUTO 28013KT 10SM SCT011 13/09 A3005 RMK AO2
08:55
V
13 °C 10 mi - 260° 260° 9 - 16 kt METAR KOAR 151555Z AUTO 26009G16KT 10SM CLR 13/08 A3005 RMK AO2
08:35
V
12 °C 10 mi - 250° 250° 13 kt METAR KOAR 151535Z AUTO 25013KT 10SM CLR 12/08 A3004 RMK AO2
08:15
V
12 °C 10 mi - 270° 270° 12 kt METAR KOAR 151515Z AUTO 27012KT 10SM CLR 12/10 A3004 RMK AO2
07:55
V
12 °C 10 mi - 250° 250° 11 kt METAR KOAR 151455Z AUTO 25011KT 10SM CLR 12/09 A3004 RMK AO2
07:35
V
11 °C 10 mi - 250° 250° 10 kt METAR KOAR 151435Z AUTO 25010KT 10SM CLR 11/09 A3005 RMK AO2
07:15
V
11 °C 10 mi - 250° 250° 11 kt METAR KOAR 151415Z AUTO 25011KT 10SM CLR 11/09 A3004 RMK AO2
06:55
V
10 °C 10 mi - 240° 240° 11 kt METAR KOAR 151355Z AUTO 24011KT 10SM CLR 10/08 A3004 RMK AO2
06:35
V
10 °C 10 mi - 240° 240° 9 kt METAR KOAR 151335Z AUTO 24009KT 10SM CLR 10/08 A3004 RMK AO2
06:15
V
10 °C 10 mi - 240° 240° 10 kt METAR KOAR 151315Z AUTO 24010KT 10SM CLR 10/08 A3005 RMK AO2
05:55
V
10 °C 7 mi - 230° 230° 10 kt METAR KOAR 151255Z AUTO 23010KT 7SM CLR 10/08 A3005 RMK AO2
05:35
V
10 °C 10 mi - 230° 230° 10 kt METAR KOAR 151235Z AUTO 23010KT 10SM CLR 10/08 A3005 RMK AO2
05:15
V
10 °C 10 mi - 230° 230° 12 kt METAR KOAR 151215Z AUTO 23012KT 10SM CLR 10/08 A3005 RMK AO2
04:55
V
10 °C 10 mi - 240° 240° 10 kt METAR KOAR 151155Z AUTO 24010KT 10SM CLR 10/08 A3005 RMK AO2
04:35
V
10 °C 10 mi - 230° 230° 12 kt METAR KOAR 151135Z AUTO 23012KT 10SM CLR 10/08 A3005 RMK AO2
04:15
V
10 °C 10 mi - 230° 230° 12 kt METAR KOAR 151115Z AUTO 23012KT 10SM CLR 10/08 A3005 RMK AO2
03:55
V
10 °C 10 mi - 240° 240° 11 kt METAR KOAR 151055Z AUTO 24011KT 10SM CLR 10/08 A3005 RMK AO2
03:35
V
10 °C 10 mi - 230° 230° 11 kt METAR KOAR 151035Z AUTO 23011KT 10SM CLR 10/08 A3005 RMK AO2
03:15
V
10 °C 10 mi - 240° 240° 11 kt METAR KOAR 151015Z AUTO 24011KT 10SM CLR 10/08 A3005 RMK AO2
02:55
V
10 °C 10 mi - 240° 240° 9 kt METAR KOAR 150955Z AUTO 24009KT 10SM CLR 10/08 A3005 RMK AO2
02:35
V
11 °C 10 mi - 230° 230° 12 kt METAR KOAR 150935Z AUTO 23012KT 10SM CLR 11/08 A3005 RMK AO2
02:15
V
10 °C 10 mi - 240° 240° 11 kt METAR KOAR 150915Z AUTO 24011KT 10SM CLR 10/08 A3005 RMK AO2
01:55
V
10 °C 10 mi - 230° 230° 10 kt METAR KOAR 150855Z AUTO 23010KT 10SM CLR 10/08 A3005 RMK AO2
01:35
V
10 °C 10 mi - 240° 240° 11 kt METAR KOAR 150835Z AUTO 24011KT 10SM CLR 10/08 A3006 RMK AO2
01:15
V
10 °C 10 mi - 230° 230° 10 kt METAR KOAR 150815Z AUTO 23010KT 10SM CLR 10/08 A3005 RMK AO2
00:55
V
10 °C 10 mi - 220° 220° 9 kt METAR KOAR 150755Z AUTO 22009KT 10SM CLR 10/08 A3005 RMK AO2
00:35
V
11 °C 10 mi - 230° 230° 9 kt METAR KOAR 150735Z AUTO 23009KT 10SM CLR 11/08 A3006 RMK AO2
00:15
V
11 °C 10 mi - 240° 240° 11 kt METAR KOAR 150715Z AUTO 24011KT 10SM CLR 11/08 A3007 RMK AO2

14 juni 2024

Tijd Code Weer Temp. Zicht Plafond Wind METAR/SPECI
23:55
V
11 °C 10 mi - 240° 240° 12 kt METAR KOAR 150655Z AUTO 24012KT 10SM CLR 11/08 A3007 RMK AO2
23:35
V
11 °C 10 mi - 240° 240° 14 kt METAR KOAR 150635Z AUTO 24014KT 10SM CLR 11/08 A3006 RMK AO2
23:15
V
11 °C 10 mi - 250° 250° 12 kt METAR KOAR 150615Z AUTO 25012KT 10SM CLR 11/08 A3007 RMK AO2
22:55
V
11 °C 10 mi - 250° 250° 14 kt METAR KOAR 150555Z AUTO 25014KT 10SM CLR 11/08 A3007 RMK AO2
22:35
V
11 °C 10 mi - 240° 240° 11 kt METAR KOAR 150535Z AUTO 24011KT 10SM CLR 11/08 A3007 RMK AO2
22:15
V
11 °C 10 mi - 250° 250° 16 kt METAR KOAR 150515Z AUTO 25016KT 10SM CLR 11/08 A3006 RMK AO2
21:55
V
11 °C 10 mi - 250° 250° 15 - 20 kt METAR KOAR 150455Z AUTO 25015G20KT 10SM CLR 11/08 A3006 RMK AO2
21:35
V
12 °C 10 mi - 240° 240° 14 - 19 kt METAR KOAR 150435Z AUTO 24014G19KT 10SM CLR 12/08 A3006 RMK AO2
21:15
V
12 °C 10 mi - 240° 240° 14 kt METAR KOAR 150415Z AUTO 24014KT 10SM CLR 12/08 A3005 RMK AO2
20:55
V
12 °C 10 mi - 240° 240° 12 kt METAR KOAR 150355Z AUTO 24012KT 10SM CLR 12/08 A3006 RMK AO2
20:35
V
12 °C 10 mi - 250° 250° 13 kt METAR KOAR 150335Z AUTO 25013KT 10SM CLR 12/08 A3005 RMK AO2
20:15
V
12 °C 10 mi - 250° 250° 16 - 22 kt METAR KOAR 150315Z AUTO 25016G22KT 10SM CLR 12/08 A3005 RMK AO2
19:55
V
13 °C 10 mi - 250° 250° 14 kt METAR KOAR 150255Z AUTO 25014KT 10SM CLR 13/08 A3005 RMK AO2
19:35
V
13 °C 10 mi - 250° 250° 15 kt METAR KOAR 150235Z AUTO 25015KT 10SM CLR 13/08 A3005 RMK AO2
19:15
V
13 °C 10 mi - 250° 250° 13 - 17 kt METAR KOAR 150215Z AUTO 25013G17KT 10SM CLR 13/08 A3005 RMK AO2
18:55
V
14 °C 10 mi - 250° 250° 15 - 20 kt METAR KOAR 150155Z AUTO 25015G20KT 10SM CLR 14/08 A3004 RMK AO2
18:35
V
14 °C 10 mi - 260° 260° 14 - 19 kt METAR KOAR 150135Z AUTO 26014G19KT 10SM CLR 14/08 A3004 RMK AO2
18:15
V
15 °C 10 mi - 260° 260° 15 - 20 kt METAR KOAR 150115Z AUTO 26015G20KT 10SM CLR 15/08 A3004 RMK AO2
17:55
V
15 °C 10 mi - 260° 260° 13 - 20 kt METAR KOAR 150055Z AUTO 26013G20KT 10SM CLR 15/08 A3004 RMK AO2
17:35
V
15 °C 10 mi - 260° 260° 16 kt METAR KOAR 150035Z AUTO 26016KT 10SM CLR 15/08 A3004 RMK AO2
17:15
V
15 °C 10 mi - 270° 270° 16 - 22 kt METAR KOAR 150015Z AUTO 27016G22KT 10SM CLR 15/08 A3003 RMK AO2
16:55
V
15 °C 10 mi - 260° 260° 16 - 21 kt METAR KOAR 142355Z AUTO 26016G21KT 10SM CLR 15/08 A3003 RMK AO2
16:35
V
15 °C 10 mi - 270° 270° 17 - 20 kt METAR KOAR 142335Z AUTO 27017G20KT 10SM CLR 15/08 A3003 RMK AO2
16:15
V
15 °C 10 mi - 270° 270° 16 kt METAR KOAR 142315Z AUTO 27016KT 10SM CLR 15/08 A3003 RMK AO2
15:55
V
16 °C 10 mi - 270° 270° 15 - 18 kt METAR KOAR 142255Z AUTO 27015G18KT 10SM CLR 16/08 A3004 RMK AO2
15:35
V
16 °C 10 mi - 260° 260° 15 kt METAR KOAR 142235Z AUTO 26015KT 10SM CLR 16/08 A3004 RMK AO2
15:15
V
16 °C 10 mi - 280° 280° 10 - 16 kt METAR KOAR 142215Z AUTO 28010G16KT 10SM CLR 16/08 A3005 RMK AO2
14:55
V
16 °C 10 mi - 270° 270° 12 - 17 kt METAR KOAR 142155Z AUTO 27012G17KT 10SM CLR 16/09 A3006 RMK AO2
14:35
V
15 °C 10 mi - 270° 270° 12 - 16 kt METAR KOAR 142135Z AUTO 27012G16KT 10SM CLR 15/09 A3006 RMK AO2
14:15
V
15 °C 10 mi - 270° 270° 10 - 17 kt METAR KOAR 142115Z AUTO 27010G17KT 10SM CLR 15/09 A3006 RMK AO2
13:55
V
15 °C 10 mi - 280° 280° 11 - 16 kt METAR KOAR 142055Z AUTO 28011G16KT 10SM CLR 15/09 A3007 RMK AO2
13:35
V
15 °C 10 mi - 290° 290° 11 - 17 kt METAR KOAR 142035Z AUTO 29011G17KT 10SM CLR 15/09 A3007 RMK AO2
13:15
V
16 °C 10 mi - 280° 280° 11 - 17 kt METAR KOAR 142015Z AUTO 28011G17KT 10SM CLR 16/09 A3007 RMK AO2
12:55
V
15 °C 10 mi - 280° 280° 10 - 16 kt METAR KOAR 141955Z AUTO 28010G16KT 10SM CLR 15/09 A3007 RMK AO2
12:35
V
15 °C 10 mi - 280° 280° 10 - 16 kt METAR KOAR 141935Z AUTO 28010G16KT 10SM CLR 15/09 A3007 RMK AO2
12:15
V
15 °C 7 mi - 270° 270° 12 - 15 kt METAR KOAR 141915Z AUTO 27012G15KT 7SM CLR 15/08 A3007 RMK AO2
11:55
V
15 °C 10 mi - 290° 290° 10 - 15 kt METAR KOAR 141855Z AUTO 29010G15KT 10SM CLR 15/08 A3007 RMK AO2
11:35
V
14 °C 10 mi - 290° 290° 8 kt METAR KOAR 141835Z AUTO 29008KT 10SM CLR 14/08 A3007 RMK AO2
11:15
V
15 °C 10 mi - 280° 280° 8 kt METAR KOAR 141815Z AUTO 28008KT 10SM CLR 15/09 A3007 RMK AO2
10:55
V
14 °C 10 mi - 270° 270° 7 kt METAR KOAR 141755Z AUTO 27007KT 10SM CLR 14/09 A3007 RMK AO2
10:35
V
14 °C 10 mi - 280° 280° 6 kt METAR KOAR 141735Z AUTO 28006KT 10SM CLR 14/09 A3007 RMK AO2
10:15
V
14 °C 10 mi - 300° 300° 5 kt METAR KOAR 141715Z AUTO 30005KT 10SM CLR 14/09 A3007 RMK AO2
09:55
V
13 °C 10 mi - 300° 300° 5 kt METAR KOAR 141655Z AUTO 30005KT 10SM SCT013 13/09 A3007 RMK AO2
09:35
M
13 °C 10 mi 1.300 ft 270° 270° 3 kt METAR KOAR 141635Z AUTO 27003KT 10SM BKN013 13/09 A3007 RMK AO2
09:15
V
13 °C 10 mi - 360° 360° 0 kt METAR KOAR 141615Z AUTO 00000KT 10SM SCT011 13/09 A3007 RMK AO2
08:55
I
12 °C 10 mi 900 ft 360° 360° 0 kt METAR KOAR 141555Z AUTO 00000KT 10SM BKN009 12/08 A3007 RMK AO2
08:35
I
11 °C 10 mi 900 ft 360° 360° 0 kt METAR KOAR 141535Z AUTO 00000KT 10SM OVC009 11/08 A3007 RMK AO2
08:15
I
11 °C 10 mi 700 ft 330° 330° 4 kt METAR KOAR 141515Z AUTO 33004KT 10SM OVC007 11/08 A3006 RMK AO2
07:55
I
11 °C 10 mi 700 ft 360° 360° 0 kt METAR KOAR 141455Z AUTO 00000KT 10SM OVC007 11/08 A3006 RMK AO2
07:35
I
10 °C 10 mi 700 ft 360° 360° 0 kt METAR KOAR 141435Z AUTO 00000KT 10SM OVC007 10/08 A3005 RMK AO2
07:15
I
10 °C 10 mi 700 ft 360° 360° 0 kt METAR KOAR 141415Z AUTO 00000KT 10SM OVC007 10/08 A3006 RMK AO2
06:55
I
10 °C 10 mi 500 ft 360° 360° 0 kt METAR KOAR 141355Z AUTO 00000KT 10SM OVC005 10/08 A3006 RMK AO2
06:35
I
10 °C 10 mi 500 ft 360° 360° 0 kt METAR KOAR 141335Z AUTO 00000KT 10SM OVC005 10/08 A3006 RMK AO2
06:15
I
10 °C 10 mi 500 ft 360° 360° 0 kt METAR KOAR 141315Z AUTO 00000KT 10SM OVC005 10/08 A3006 RMK AO2
05:55
I
10 °C 10 mi 500 ft 360° 360° 0 kt METAR KOAR 141255Z AUTO 00000KT 10SM OVC005 10/08 A3005 RMK AO2
05:35
I
10 °C 10 mi 500 ft 360° 360° 0 kt METAR KOAR 141235Z AUTO 00000KT 10SM OVC005 10/08 A3005 RMK AO2
05:15
I
10 °C 10 mi 500 ft 290° 290° 3 kt METAR KOAR 141215Z AUTO 29003KT 10SM OVC005 10/08 A3005 RMK AO2
04:55
I
10 °C 10 mi 500 ft 300° 300° 3 kt METAR KOAR 141155Z AUTO 30003KT 10SM OVC005 10/08 A3005 RMK AO2
04:35
I
10 °C 10 mi 500 ft 260° 260° 5 kt METAR KOAR 141135Z AUTO 26005KT 10SM OVC005 10/08 A3005 RMK AO2
04:15
I
10 °C 10 mi 500 ft 280° 280° 5 kt METAR KOAR 141115Z AUTO 28005KT 10SM OVC005 10/08 A3005 RMK AO2
03:55
I
10 °C 7 mi 500 ft 280° 280° 6 kt METAR KOAR 141055Z AUTO 28006KT 7SM OVC005 10/09 A3004 RMK AO2
03:35
I
10 °C 7 mi 500 ft 270° 270° 5 kt METAR KOAR 141035Z AUTO 27005KT 7SM OVC005 10/09 A3004 RMK AO2
03:15
I
10 °C 7 mi 500 ft 240° 240° 4 kt METAR KOAR 141015Z AUTO 24004KT 7SM OVC005 10/09 A3004 RMK AO2
02:55
I
10 °C 10 mi 500 ft 260° 260° 4 kt METAR KOAR 140955Z AUTO 26004KT 10SM OVC005 10/08 A3003 RMK AO2
02:35
I
10 °C 10 mi 900 ft 250° 250° 6 kt METAR KOAR 140935Z AUTO 25006KT 10SM OVC009 10/08 A3004 RMK AO2
02:15
I
10 °C 10 mi 900 ft 250° 250° 8 kt METAR KOAR 140915Z AUTO 25008KT 10SM OVC009 10/08 A3004 RMK AO2
01:55
I
10 °C 10 mi 900 ft 260° 260° 6 kt METAR KOAR 140855Z AUTO 26006KT 10SM OVC009 10/08 A3004 RMK AO2
01:35
I
10 °C 10 mi 900 ft 270° 270° 6 kt METAR KOAR 140835Z AUTO 27006KT 10SM OVC009 10/08 A3005 RMK AO2
01:15
I
10 °C 10 mi 900 ft 260° 260° 5 kt METAR KOAR 140815Z AUTO 26005KT 10SM OVC009 10/08 A3005 RMK AO2
00:55
I
10 °C 10 mi 900 ft 240° 240° 7 kt METAR KOAR 140755Z AUTO 24007KT 10SM OVC009 10/08 A3006 RMK AO2
00:35
I
11 °C 10 mi 900 ft 230° 230° 5 kt METAR KOAR 140735Z AUTO 23005KT 10SM OVC009 11/08 A3007 RMK AO2
00:15
I
11 °C 10 mi 900 ft 260° 260° 7 kt METAR KOAR 140715Z AUTO 26007KT 10SM OVC009 11/08 A3007 RMK AO2

13 juni 2024

Tijd Code Weer Temp. Zicht Plafond Wind METAR/SPECI
23:55
I
11 °C 10 mi 900 ft 270° 270° 6 kt METAR KOAR 140655Z AUTO 27006KT 10SM OVC009 11/08 A3007 RMK AO2
23:35
I
10 °C 10 mi 900 ft 250° 250° 6 kt METAR KOAR 140635Z AUTO 25006KT 10SM OVC009 10/08 A3008 RMK AO2
23:15
I
10 °C 10 mi 900 ft 240° 240° 8 kt METAR KOAR 140615Z AUTO 24008KT 10SM OVC009 10/08 A3008 RMK AO2
22:55
I
10 °C 10 mi 900 ft 250° 250° 8 kt METAR KOAR 140555Z AUTO 25008KT 10SM OVC009 10/08 A3008 RMK AO2
22:35
I
10 °C 10 mi 900 ft 260° 260° 8 kt METAR KOAR 140535Z AUTO 26008KT 10SM OVC009 10/08 A3009 RMK AO2
22:15
I
10 °C 10 mi 700 ft 270° 270° 9 kt METAR KOAR 140515Z AUTO 27009KT 10SM OVC007 10/08 A3009 RMK AO2
21:55
I
10 °C 10 mi 700 ft 270° 270° 7 kt METAR KOAR 140455Z AUTO 27007KT 10SM OVC007 10/08 A3009 RMK AO2
21:35
I
10 °C 10 mi 700 ft 270° 270° 10 kt METAR KOAR 140435Z AUTO 27010KT 10SM OVC007 10/08 A3008 RMK AO2
21:15
I
10 °C 10 mi 700 ft 280° 280° 6 kt METAR KOAR 140415Z AUTO 28006KT 10SM OVC007 10/08 A3007 RMK AO2
20:55
I
10 °C 10 mi 700 ft 280° 280° 7 kt METAR KOAR 140355Z AUTO 28007KT 10SM OVC007 10/08 A3008 RMK AO2
20:35
I
10 °C 10 mi 900 ft 260° 260° 11 - 15 kt METAR KOAR 140335Z AUTO 26011G15KT 10SM OVC009 10/08 A3008 RMK AO2
20:15
I
11 °C 10 mi 900 ft 280° 280° 9 kt METAR KOAR 140315Z AUTO 28009KT 10SM OVC009 11/08 A3007 RMK AO2
19:55
I
11 °C 10 mi 900 ft 260° 260° 8 kt METAR KOAR 140255Z AUTO 26008KT 10SM OVC009 11/08 A3007 RMK AO2
19:35
I
11 °C 10 mi 900 ft 280° 280° 8 kt METAR KOAR 140235Z AUTO 28008KT 10SM OVC009 11/08 A3006 RMK AO2
19:15
I
11 °C 10 mi 900 ft 280° 280° 8 kt METAR KOAR 140215Z AUTO 28008KT 10SM OVC009 11/08 A3006 RMK AO2
18:55
I
11 °C 10 mi 900 ft 280° 280° 9 kt METAR KOAR 140155Z AUTO 28009KT 10SM OVC009 11/08 A3005 RMK AO2
18:35
I
11 °C 10 mi 900 ft 280° 280° 10 kt METAR KOAR 140135Z AUTO 28010KT 10SM OVC009 11/09 A3005 RMK AO2
18:15
I
12 °C 10 mi 900 ft 270° 270° 10 - 14 kt METAR KOAR 140115Z AUTO 27010G14KT 10SM OVC009 12/09 A3005 RMK AO2
17:55
I
12 °C 10 mi 900 ft 280° 280° 12 kt METAR KOAR 140055Z AUTO 28012KT 10SM OVC009 12/09 A3004 RMK AO2
17:35
M
12 °C 10 mi 1.100 ft 280° 280° 11 kt METAR KOAR 140035Z AUTO 28011KT 10SM OVC011 12/09 A3004 RMK AO2
17:15
M
12 °C 10 mi 1.100 ft 280° 280° 11 - 14 kt METAR KOAR 140015Z AUTO 28011G14KT 10SM OVC011 12/09 A3004 RMK AO2
16:55
M
12 °C 10 mi 1.100 ft 260° 260° 10 - 17 kt METAR KOAR 132355Z AUTO 26010G17KT 10SM OVC011 12/09 A3004 RMK AO2
16:35
M
13 °C 10 mi 1.300 ft 290° 290° 9 kt METAR KOAR 132335Z AUTO 29009KT 10SM OVC013 13/08 A3004 RMK AO2
16:15
M
13 °C 10 mi 1.300 ft 280° 280° 13 - 17 kt METAR KOAR 132315Z AUTO 28013G17KT 10SM OVC013 13/08 A3004 RMK AO2
15:55
M
13 °C 10 mi 1.100 ft 280° 280° 13 - 19 kt METAR KOAR 132255Z AUTO 28013G19KT 10SM OVC011 13/09 A3004 RMK AO2
15:35
M
13 °C 10 mi 1.300 ft 280° 280° 14 - 18 kt METAR KOAR 132235Z AUTO 28014G18KT 10SM OVC013 13/09 A3004 RMK AO2
15:15
M
13 °C 10 mi 1.100 ft 270° 270° 14 - 18 kt METAR KOAR 132215Z AUTO 27014G18KT 10SM OVC011 13/09 A3004 RMK AO2
14:55
M
13 °C 10 mi 1.100 ft 270° 270° 11 kt METAR KOAR 132155Z AUTO 27011KT 10SM OVC011 13/09 A3004 RMK AO2
14:35
M
13 °C 10 mi 1.100 ft 290° 290° 13 kt METAR KOAR 132135Z AUTO 29013KT 10SM OVC011 13/09 A3005 RMK AO2
14:15
M
13 °C 10 mi 1.100 ft 290° 290° 14 - 18 kt METAR KOAR 132115Z AUTO 29014G18KT 10SM OVC011 13/08 A3004 RMK AO2
13:55
I
13 °C 10 mi 900 ft 270° 270° 15 - 18 kt METAR KOAR 132055Z AUTO 27015G18KT 10SM OVC009 13/09 A3005 RMK AO2
13:35
I
12 °C 10 mi 900 ft 290° 290° 13 - 17 kt METAR KOAR 132035Z AUTO 29013G17KT 10SM OVC009 12/09 A3004 RMK AO2
13:15
I
12 °C 10 mi 900 ft 280° 280° 13 - 17 kt METAR KOAR 132015Z AUTO 28013G17KT 10SM OVC009 12/08 A3004 RMK AO2
12:55
I
12 °C 10 mi 900 ft 280° 280° 13 kt METAR KOAR 131955Z AUTO 28013KT 10SM OVC009 12/08 A3004 RMK AO2
12:35
I
12 °C 10 mi 900 ft 280° 280° 12 - 16 kt METAR KOAR 131935Z AUTO 28012G16KT 10SM OVC009 12/08 A3004 RMK AO2
12:15
I
12 °C 7 mi 900 ft 290° 290° 11 kt METAR KOAR 131915Z AUTO 29011KT 7SM OVC009 12/09 A3003 RMK AO2
11:55
I
12 °C 7 mi 900 ft 280° 280° 12 - 16 kt METAR KOAR 131855Z AUTO 28012G16KT 7SM OVC009 12/09 A3003 RMK AO2
11:35
I
12 °C 7 mi 900 ft 280° 280° 10 kt METAR KOAR 131835Z AUTO 28010KT 7SM OVC009 12/09 A3002 RMK AO2
11:15
I
12 °C 7 mi 700 ft 280° 280° 10 kt METAR KOAR 131815Z AUTO 28010KT 7SM OVC007 12/09 A3002 RMK AO2
10:55
I
11 °C 7 mi 700 ft 270° 270° 10 kt METAR KOAR 131755Z AUTO 27010KT 7SM OVC007 11/09 A3002 RMK AO2
10:35
I
11 °C 10 mi 700 ft 280° 280° 10 kt METAR KOAR 131735Z AUTO 28010KT 10SM OVC007 11/09 A3001 RMK AO2
09:55
I
11 °C 10 mi 700 ft 270° 270° 9 kt METAR KOAR 131655Z AUTO 27009KT 10SM OVC007 11/10 A3000 RMK AO2
08:15
V
11 °C 7 mi - 260° 260° 5 kt METAR KOAR 131515Z AUTO 26005KT 7SM 11/10 A2999 RMK AO2
07:55
M
11 °C 4 mi - 270° 270° 6 kt METAR KOAR 131455Z AUTO 27006KT 4SM BR 11/10 A2998 RMK AO2
07:35
I
10 °C 5 mi 600 ft 270° 270° 4 kt METAR KOAR 131435Z AUTO 27004KT 5SM BR OVC006 10/10 A2997 RMK AO2
07:15
I
10 °C 5 mi 500 ft 260° 260° 3 kt METAR KOAR 131415Z AUTO 26003KT 5SM BR OVC005 10/10 A2997 RMK AO2
06:55
I
10 °C 5 mi 500 ft 260° 260° 3 kt METAR KOAR 131355Z AUTO 26003KT 5SM BR OVC005 10/10 A2997 RMK AO2
06:15
I
10 °C 7 mi 700 ft 360° 360° 0 kt METAR KOAR 131315Z AUTO 00000KT 7SM OVC007 10/10 A2997 RMK AO2
05:55
I
10 °C 10 mi 700 ft 360° 360° 0 kt METAR KOAR 131255Z AUTO 00000KT 10SM OVC007 10/10 A2996 RMK AO2
05:35
I
10 °C 10 mi 700 ft 360° 360° 0 kt METAR KOAR 131235Z AUTO 00000KT 10SM OVC007 10/10 A2996 RMK AO2
05:15
V
10 °C 7 mi - 250° 250° 3 kt METAR KOAR 131215Z AUTO 25003KT 7SM 10/10 A2995 RMK AO2
04:55
V
10 °C 7 mi - 270° 270° 3 kt METAR KOAR 131155Z AUTO 27003KT 7SM 10/10 A2995 RMK AO2
04:35
V
10 °C 5 mi - 280° 280° 4 kt METAR KOAR 131135Z AUTO 28004KT 5SM BR 10/10 A2995 RMK AO2
04:15
V
10 °C 5 mi - 360° 360° 0 kt METAR KOAR 131115Z AUTO 00000KT 5SM BR 10/10 A2994 RMK AO2
03:55
M
10 °C 4 mi - 360° 360° 0 kt METAR KOAR 131055Z AUTO 00000KT 4SM BR 10/10 A2994 RMK AO2
03:35
I
10 °C 3 mi - 360° 360° 0 kt METAR KOAR 131035Z AUTO 00000KT 3SM BR 10/10 A2994 RMK AO2
03:15
I
10 °C 3 mi - 360° 360° 0 kt METAR KOAR 131015Z AUTO 00000KT 3SM BR 10/10 A2994 RMK AO2
02:55
I
10 °C 2½ mi - 360° 360° 0 kt METAR KOAR 130955Z AUTO 00000KT 2 1/2SM BR 10/10 A2995 RMK AO2
02:35
I
10 °C 3 mi - 360° 360° 0 kt METAR KOAR 130935Z AUTO 00000KT 3SM BR 10/10 A2995 RMK AO2
02:15
I
10 °C 3 mi - 360° 360° 0 kt METAR KOAR 130915Z AUTO 00000KT 3SM BR 10/10 A2995 RMK AO2
01:55
I
10 °C 3 mi - 290° 290° 3 kt METAR KOAR 130855Z AUTO 29003KT 3SM BR 10/10 A2995 RMK AO2
01:35
I
10 °C 2½ mi - 290° 290° 3 kt METAR KOAR 130835Z AUTO 29003KT 2 1/2SM BR 10/10 A2996 RMK AO2
01:15
I
10 °C 2½ mi - 360° 360° 0 kt METAR KOAR 130815Z AUTO 00000KT 2 1/2SM BR 10/10 A2996 RMK AO2
00:55
I
10 °C 2 mi - 360° 360° 0 kt METAR KOAR 130755Z AUTO 00000KT 2SM BR 10/10 A2996 RMK AO2
00:35
I
11 °C 1¾ mi - 360° 360° 0 kt METAR KOAR 130735Z AUTO 00000KT 1 3/4SM BR 11/10 A2996 RMK AO2
00:15
I
11 °C 1¾ mi - 360° 360° 0 kt METAR KOAR 130715Z AUTO 00000KT 1 3/4SM BR 11/10 A2996 RMK AO2

12 juni 2024

Tijd Code Weer Temp. Zicht Plafond Wind METAR/SPECI
23:55
I
11 °C 2 mi - 360° 360° 0 kt METAR KOAR 130655Z AUTO 00000KT 2SM BR 11/10 A2996 RMK AO2
23:35
I
11 °C 2½ mi 500 ft 360° 360° 0 kt METAR KOAR 130635Z AUTO 00000KT 2 1/2SM BR OVC005 11/10 A2997 RMK AO2
23:15
I
11 °C 2½ mi 700 ft 360° 360° 0 kt METAR KOAR 130615Z AUTO 00000KT 2 1/2SM BR OVC007 11/10 A2997 RMK AO2
22:55
I
11 °C 3 mi - 360° 360° 0 kt METAR KOAR 130555Z AUTO 00000KT 3SM BR 11/10 A2997 RMK AO2
Wijziging doorgeven